createdAt,value
2022-12-17T00:01:52.770Z,101733.13
2022-12-17T00:04:38.966Z,101740.31
2022-12-17T00:07:23.997Z,101739.28
2022-12-17T00:10:09.196Z,101746.13
2022-12-17T00:12:56.336Z,101749.16
2022-12-17T00:15:41.655Z,101746.44
2022-12-17T00:18:28.179Z,101749.66
2022-12-17T00:21:15.189Z,101752.22
2022-12-17T00:24:00.493Z,101752.41
2022-12-17T00:26:45.666Z,101751.00
2022-12-17T00:29:30.939Z,101752.88
2022-12-17T00:32:16.802Z,101753.94
2022-12-17T00:35:02.182Z,101753.94
2022-12-17T00:37:47.594Z,101761.78
2022-12-17T00:40:32.961Z,101766.56
2022-12-17T00:43:29.921Z,101765.53
2022-12-17T00:46:16.055Z,101760.22
2022-12-17T00:49:01.238Z,101772.72
2022-12-17T00:51:46.766Z,101767.91
2022-12-17T00:54:31.885Z,101775.78
2022-12-17T00:57:17.451Z,101775.34
2022-12-17T01:00:02.447Z,101776.56
2022-12-17T01:02:47.734Z,101785.72
2022-12-17T01:05:42.315Z,101789.22
2022-12-17T01:08:32.431Z,101796.56
2022-12-17T01:11:27.182Z,101798.00
2022-12-17T01:14:12.914Z,101806.09
2022-12-17T01:16:57.854Z,101810.34
2022-12-17T01:19:42.966Z,101811.47
2022-12-17T01:22:28.701Z,101815.56
2022-12-17T01:25:13.532Z,101814.84
2022-12-17T01:27:58.717Z,101820.38
2022-12-17T01:30:45.206Z,101823.31
2022-12-17T01:33:30.257Z,101809.78
2022-12-17T01:36:17.042Z,101819.72
2022-12-17T01:39:02.000Z,101830.69
2022-12-17T01:41:47.392Z,101825.25
2022-12-17T01:44:57.787Z,101828.47
2022-12-17T01:47:48.646Z,101833.84
2022-12-17T01:50:36.079Z,101838.38
2022-12-17T01:53:24.705Z,101840.59
2022-12-17T01:56:11.098Z,101843.88
2022-12-17T01:58:57.832Z,101844.03
2022-12-17T02:01:42.844Z,101846.09
2022-12-17T02:04:28.678Z,101848.63
2022-12-17T02:07:31.296Z,101844.34
2022-12-17T02:10:44.799Z,101854.28
2022-12-17T02:13:37.425Z,101841.22
2022-12-17T02:16:29.100Z,101839.81
2022-12-17T02:19:20.784Z,101840.91
2022-12-17T02:22:11.558Z,101835.91
2022-12-17T02:25:18.001Z,101832.00
2022-12-17T02:28:03.502Z,101832.72
2022-12-17T02:30:50.335Z,101853.09
2022-12-17T02:33:36.350Z,101840.56
2022-12-17T02:36:24.828Z,101847.97
2022-12-17T02:39:10.659Z,101846.63
2022-12-17T02:42:06.008Z,101847.53
2022-12-17T02:44:56.115Z,101857.31
2022-12-17T02:47:43.007Z,101856.78
2022-12-17T02:50:29.372Z,101858.63
2022-12-17T02:53:18.446Z,101856.25
2022-12-17T02:56:03.859Z,101854.19
2022-12-17T02:58:51.670Z,101856.22
2022-12-17T03:01:37.077Z,101858.97
2022-12-17T03:04:22.935Z,101858.63
2022-12-17T03:07:07.968Z,101856.25
2022-12-17T03:09:53.123Z,101872.03
2022-12-17T03:12:39.579Z,101871.72
2022-12-17T03:15:24.994Z,101874.41
2022-12-17T03:18:09.936Z,101885.22
2022-12-17T03:20:54.919Z,101884.63
2022-12-17T03:23:39.860Z,101880.69
2022-12-17T03:26:25.412Z,101886.16
2022-12-17T03:29:10.422Z,101880.91
2022-12-17T03:31:55.376Z,101881.53
2022-12-17T03:34:40.255Z,101883.06
2022-12-17T03:37:25.467Z,101895.81
2022-12-17T03:40:10.387Z,101891.81
2022-12-17T03:42:55.206Z,101897.63
2022-12-17T03:45:40.161Z,101896.13
2022-12-17T03:48:27.878Z,101903.66
2022-12-17T03:51:13.381Z,101911.34
2022-12-17T03:53:58.852Z,101905.53
2022-12-17T03:56:44.188Z,101908.25
2022-12-17T03:59:30.245Z,101919.56
2022-12-17T04:02:15.834Z,101914.28
2022-12-17T04:05:00.867Z,101918.25
2022-12-17T04:07:46.253Z,101926.09
2022-12-17T04:10:31.560Z,101930.72
2022-12-17T04:13:16.545Z,101927.13
2022-12-17T04:16:14.405Z,101933.63
2022-12-17T04:18:59.570Z,101932.06
2022-12-17T04:21:44.456Z,101936.22
2022-12-17T04:24:29.425Z,101946.38
2022-12-17T04:27:14.287Z,101949.47
2022-12-17T04:29:59.227Z,101956.66
2022-12-17T04:32:44.046Z,101950.13
2022-12-17T04:35:28.953Z,101956.97
2022-12-17T04:38:13.775Z,101955.78
2022-12-17T04:40:58.774Z,101956.13
2022-12-17T04:43:43.738Z,101951.16
2022-12-17T04:46:28.625Z,101956.13
2022-12-17T04:49:16.535Z,101953.03
2022-12-17T04:52:01.500Z,101955.91
2022-12-17T04:54:46.322Z,101951.00
2022-12-17T04:57:31.305Z,101954.25
2022-12-17T05:00:16.098Z,101958.69
2022-12-17T05:03:01.420Z,101971.56
2022-12-17T05:05:46.729Z,101967.09
2022-12-17T05:08:34.568Z,101972.72
2022-12-17T05:11:23.554Z,101971.53
2022-12-17T05:14:08.473Z,101968.78
2022-12-17T05:17:08.887Z,101969.47
2022-12-17T05:19:53.717Z,101970.13
2022-12-17T05:22:38.627Z,101974.25
2022-12-17T05:25:25.805Z,101973.75
2022-12-17T05:28:10.640Z,101973.75
2022-12-17T05:30:59.939Z,101982.50
2022-12-17T05:33:46.708Z,101974.94
2022-12-17T05:36:31.602Z,101985.94
2022-12-17T05:39:16.581Z,101989.84
2022-12-17T05:42:01.425Z,101989.00
2022-12-17T05:44:46.262Z,101995.00
2022-12-17T05:47:31.128Z,102004.59
2022-12-17T05:50:17.045Z,102007.91
2022-12-17T05:53:02.054Z,102016.28
2022-12-17T05:55:46.991Z,102021.44
2022-12-17T05:58:32.211Z,102021.09
2022-12-17T06:01:19.267Z,102028.31
2022-12-17T06:04:04.632Z,102027.97
2022-12-17T06:06:50.996Z,102036.69
2022-12-17T06:09:36.738Z,102040.47
2022-12-17T06:12:22.190Z,102043.22
2022-12-17T06:15:07.581Z,102039.44
2022-12-17T06:17:52.635Z,102040.63
2022-12-17T06:20:37.790Z,102052.47
2022-12-17T06:23:30.230Z,102058.16
2022-12-17T06:26:16.350Z,102055.06
2022-12-17T06:29:02.507Z,102045.13
2022-12-17T06:31:47.848Z,102055.75
2022-12-17T06:34:33.043Z,102053.66
2022-12-17T06:37:18.327Z,102050.91
2022-12-17T06:40:03.175Z,102060.03
2022-12-17T06:42:48.134Z,102057.75
2022-12-17T06:45:32.989Z,102063.06
2022-12-17T06:48:27.099Z,102072.69
2022-12-17T06:51:13.383Z,102068.06
2022-12-17T06:53:59.334Z,102082.00
2022-12-17T06:56:44.135Z,102078.69
2022-12-17T06:59:29.534Z,102092.78
2022-12-17T07:02:14.616Z,102104.97
2022-12-17T07:04:59.812Z,102103.75
2022-12-17T07:07:44.860Z,102099.66
2022-12-17T07:10:30.062Z,102106.00
2022-12-17T07:13:34.078Z,102107.69
2022-12-17T07:16:19.418Z,102110.44
2022-12-17T07:19:07.515Z,102115.59
2022-12-17T07:21:52.394Z,102121.44
2022-12-17T07:24:37.575Z,102124.88
2022-12-17T07:27:22.427Z,102123.66
2022-12-17T07:30:07.483Z,102132.25
2022-12-17T07:32:52.437Z,102130.69
2022-12-17T07:35:37.453Z,102132.41
2022-12-17T07:38:23.593Z,102138.59
2022-12-17T07:41:09.009Z,102144.59
2022-12-17T07:43:54.102Z,102156.25
2022-12-17T07:46:39.517Z,102159.19
2022-12-17T07:49:26.051Z,102160.19
2022-12-17T07:52:11.419Z,102161.94
2022-12-17T07:54:56.542Z,102169.81
2022-12-17T07:57:41.358Z,102163.97
2022-12-17T08:00:26.782Z,102170.31
2022-12-17T08:03:16.182Z,102170.16
2022-12-17T08:06:10.799Z,102181.13
2022-12-17T08:08:55.658Z,102183.88
2022-12-17T08:11:40.477Z,102193.66
2022-12-17T08:14:25.381Z,102187.13
2022-12-17T08:20:19.899Z,102186.44
2022-12-17T08:23:04.895Z,102188.50
2022-12-17T08:25:49.927Z,102189.38
2022-12-17T08:28:50.084Z,102197.94
2022-12-17T08:31:35.733Z,102196.72
2022-12-17T08:34:20.616Z,102199.78
2022-12-17T08:37:05.611Z,102207.69
2022-12-17T08:39:50.436Z,102212.53
2022-12-17T08:42:35.433Z,102213.41
2022-12-17T08:45:20.277Z,102212.72
2022-12-17T08:48:05.245Z,102219.56
2022-12-17T08:50:50.327Z,102217.69
2022-12-17T08:53:35.481Z,102221.72
2022-12-17T08:56:20.984Z,102217.13
2022-12-17T08:59:05.824Z,102230.56
2022-12-17T09:01:50.762Z,102237.06
2022-12-17T09:04:35.871Z,102235.00
2022-12-17T09:07:20.823Z,102238.09
2022-12-17T09:10:05.756Z,102242.91
2022-12-17T09:12:50.569Z,102241.88
2022-12-17T09:15:35.482Z,102245.31
2022-12-17T09:18:20.629Z,102241.84
2022-12-17T09:21:13.582Z,102239.81
2022-12-17T09:23:59.446Z,102244.97
2022-12-17T09:26:44.156Z,102239.47
2022-12-17T09:29:29.124Z,102245.50
2022-12-17T09:32:14.223Z,102244.09
2022-12-17T09:35:03.768Z,102237.41
2022-12-17T09:37:48.916Z,102250.44
2022-12-17T09:40:52.140Z,102258.31
2022-12-17T09:43:45.022Z,102253.53
2022-12-17T09:46:45.312Z,102260.41
2022-12-17T09:49:40.183Z,102258.78
2022-12-17T09:52:38.173Z,102256.75
2022-12-17T09:55:33.960Z,102261.34
2022-12-17T09:58:19.660Z,102261.19
2022-12-17T10:01:08.170Z,102271.66
2022-12-17T10:03:54.889Z,102271.97
2022-12-17T10:06:46.635Z,102269.78
2022-12-17T10:09:34.384Z,102260.91
2022-12-17T10:12:30.641Z,102264.50
2022-12-17T10:15:15.626Z,102266.41
2022-12-17T10:18:00.848Z,102267.75
2022-12-17T10:21:19.928Z,102267.75
2022-12-17T10:24:05.159Z,102278.06
2022-12-17T10:26:53.347Z,102277.16
2022-12-17T10:29:47.772Z,102274.22
2022-12-17T10:32:33.126Z,102279.72
2022-12-17T10:35:20.502Z,102287.41
2022-12-17T10:38:05.371Z,102289.34
2022-12-17T10:40:51.808Z,102294.56
2022-12-17T10:43:51.024Z,102295.03
2022-12-17T10:46:47.699Z,102304.88
2022-12-17T10:49:36.813Z,102300.63
2022-12-17T10:52:48.062Z,102307.69
2022-12-17T10:55:46.945Z,102305.94
2022-12-17T10:58:35.174Z,102309.56
2022-12-17T11:01:21.649Z,102307.53
2022-12-17T11:04:12.275Z,102309.94
2022-12-17T11:07:09.852Z,102319.31
2022-12-17T11:10:10.658Z,102323.78
2022-12-17T11:13:04.942Z,102328.75
2022-12-17T11:16:10.247Z,102326.16
2022-12-17T11:19:03.600Z,102325.16
2022-12-17T11:22:09.361Z,102328.78
2022-12-17T11:25:16.200Z,102331.16
2022-12-17T11:28:06.374Z,102332.41
2022-12-17T11:31:07.648Z,102337.84
2022-12-17T11:34:01.997Z,102338.56
2022-12-17T11:37:01.026Z,102344.34
2022-12-17T11:40:01.883Z,102343.34
2022-12-17T11:42:56.014Z,102343.13
2022-12-17T11:45:50.280Z,102345.16
2022-12-17T11:48:49.085Z,102351.53
2022-12-17T11:51:52.961Z,102356.63
2022-12-17T11:54:52.275Z,102356.25
2022-12-17T11:57:45.436Z,102356.00
2022-12-17T12:00:39.217Z,102352.81
2022-12-17T12:03:33.059Z,102353.09
2022-12-17T12:06:19.929Z,102347.44
2022-12-17T12:09:32.559Z,102346.56
2022-12-17T12:12:51.699Z,102350.88
2022-12-17T12:15:36.750Z,102355.50
2022-12-17T12:19:09.317Z,102360.44
2022-12-17T12:22:02.662Z,102355.19
2022-12-17T12:25:05.923Z,102348.84
2022-12-17T12:28:14.436Z,102360.81
2022-12-17T12:31:43.989Z,102364.84
2022-12-17T12:34:43.254Z,102365.16
2022-12-17T12:37:33.792Z,102370.59
2022-12-17T12:40:34.102Z,102370.75
2022-12-17T12:43:29.259Z,102371.00
2022-12-17T12:46:24.602Z,102370.94
2022-12-17T12:49:16.474Z,102380.78
2022-12-17T12:52:01.952Z,102373.44
2022-12-17T12:54:51.372Z,102382.31
2022-12-17T12:57:57.411Z,102383.34
2022-12-17T13:00:58.081Z,102385.56
2022-12-17T13:03:48.837Z,102389.19
2022-12-17T13:06:40.500Z,102383.00
2022-12-17T13:09:15.894Z,102386.13
2022-12-17T13:11:44.947Z,102386.72
2022-12-17T13:14:19.393Z,102385.69
2022-12-17T13:16:48.645Z,102395.06
2022-12-17T13:19:20.969Z,102399.38
2022-12-17T13:21:47.888Z,102402.25
2022-12-17T13:24:26.820Z,102406.47
2022-12-17T13:26:53.710Z,102407.25
2022-12-17T13:29:33.602Z,102407.91
2022-12-17T13:32:38.617Z,102405.16
2022-12-17T13:35:23.953Z,102402.09
2022-12-17T13:38:05.241Z,102407.09
2022-12-17T13:41:10.415Z,102404.28
2022-12-17T13:43:43.967Z,102408.97
2022-12-17T13:46:29.792Z,102414.16
2022-12-17T13:48:59.213Z,102424.22
2022-12-17T13:51:28.482Z,102419.03
2022-12-17T13:53:57.819Z,102426.75
2022-12-17T13:56:27.634Z,102431.56
2022-12-17T13:58:56.274Z,102433.22
2022-12-17T14:01:23.135Z,102438.06
2022-12-17T14:04:06.373Z,102442.22
2022-12-17T14:06:36.231Z,102455.47
2022-12-17T14:09:03.696Z,102447.72
2022-12-17T14:11:49.995Z,102452.91
2022-12-17T14:14:27.344Z,102450.47
2022-12-17T14:16:55.009Z,102457.50
2022-12-17T14:19:22.410Z,102459.22
2022-12-17T14:21:48.963Z,102455.94
2022-12-17T14:24:18.798Z,102448.25
2022-12-17T14:26:52.848Z,102454.88
2022-12-17T14:29:25.472Z,102458.59
2022-12-17T14:31:57.829Z,102452.78
2022-12-17T14:34:24.977Z,102470.63
2022-12-17T14:36:59.559Z,102468.34
2022-12-17T14:39:31.572Z,102463.25
2022-12-17T14:42:25.431Z,102466.63
2022-12-17T14:45:06.247Z,102480.63
2022-12-17T14:47:34.956Z,102479.28
2022-12-17T14:50:10.170Z,102482.06
2022-12-17T14:52:45.319Z,102482.91
2022-12-17T14:55:23.757Z,102491.06
2022-12-17T14:57:54.825Z,102495.38
2022-12-17T15:00:21.718Z,102499.97
2022-12-17T15:02:52.489Z,102499.50
2022-12-17T15:05:19.192Z,102493.69
2022-12-17T15:07:45.726Z,102498.69
2022-12-17T15:10:14.837Z,102502.94
2022-12-17T15:12:42.646Z,102502.09
2022-12-17T15:15:13.503Z,102509.22
2022-12-17T15:17:39.929Z,102512.22
2022-12-17T15:20:19.246Z,102511.66
2022-12-17T15:22:46.537Z,102517.13
2022-12-17T15:25:14.054Z,102518.38
2022-12-17T15:27:40.537Z,102523.41
2022-12-17T15:30:07.767Z,102524.72
2022-12-17T15:32:34.148Z,102526.06
2022-12-17T15:35:00.529Z,102529.13
2022-12-17T15:37:26.913Z,102528.66
2022-12-17T15:39:53.317Z,102545.41
2022-12-17T15:42:38.301Z,102542.13
2022-12-17T15:45:05.240Z,102534.44
2022-12-17T15:47:31.658Z,102531.16
2022-12-17T15:49:58.069Z,102529.59
2022-12-17T15:52:24.467Z,102536.06
2022-12-17T15:54:50.872Z,102530.75
2022-12-17T15:57:18.859Z,102530.13
2022-12-17T15:59:45.422Z,102539.63
2022-12-17T16:02:12.149Z,102529.03
2022-12-17T16:04:38.697Z,102532.78
2022-12-17T16:07:05.699Z,102535.47
2022-12-17T16:09:32.140Z,102536.22
2022-12-17T16:11:58.536Z,102527.16
2022-12-17T16:14:25.022Z,102537.31
2022-12-17T16:16:52.041Z,102537.31
2022-12-17T16:19:18.552Z,102543.22
2022-12-17T16:21:48.857Z,102546.34
2022-12-17T16:24:15.323Z,102544.38
2022-12-17T16:26:41.978Z,102555.66
2022-12-17T16:29:08.450Z,102545.13
2022-12-17T16:31:34.916Z,102547.03
2022-12-17T16:34:01.416Z,102542.44
2022-12-17T16:36:27.829Z,102552.84
2022-12-17T16:38:54.882Z,102548.47
2022-12-17T16:41:22.370Z,102551.97
2022-12-17T16:43:49.010Z,102551.19
2022-12-17T16:46:34.141Z,102559.81
2022-12-17T16:49:22.398Z,102561.00
2022-12-17T16:51:53.928Z,102567.09
2022-12-17T16:54:24.016Z,102568.38
2022-12-17T16:56:50.423Z,102574.63
2022-12-17T16:59:17.882Z,102569.31
2022-12-17T17:01:47.409Z,102574.63
2022-12-17T17:04:15.205Z,102574.94
2022-12-17T17:06:45.097Z,102573.63
2022-12-17T17:09:12.438Z,102567.28
2022-12-17T17:11:39.473Z,102568.97
2022-12-17T17:14:06.954Z,102576.31
2022-12-17T17:16:34.511Z,102575.81
2022-12-17T17:19:01.685Z,102578.66
2022-12-17T17:21:29.433Z,102576.00
2022-12-17T17:23:59.745Z,102579.41
2022-12-17T17:26:28.130Z,102581.88
2022-12-17T17:28:54.977Z,102595.50
2022-12-17T17:31:26.717Z,102593.28
2022-12-17T17:33:57.130Z,102592.88
2022-12-17T17:36:29.639Z,102592.94
2022-12-17T17:38:58.726Z,102596.38
2022-12-17T17:41:28.185Z,102594.88
2022-12-17T17:44:00.241Z,102590.28
2022-12-17T17:46:28.575Z,102598.50
2022-12-17T17:48:57.305Z,102598.75
2022-12-17T17:51:59.937Z,102605.41
2022-12-17T17:54:14.548Z,102609.31
2022-12-17T17:56:42.199Z,102612.22
2022-12-17T17:59:14.547Z,102613.22
2022-12-17T18:01:47.962Z,102608.19
2022-12-17T18:04:18.442Z,102611.59
2022-12-17T18:07:09.058Z,102608.13
2022-12-17T18:09:34.228Z,102608.28
2022-12-17T18:12:22.088Z,102615.09
2022-12-17T18:15:12.731Z,102615.03
2022-12-17T18:17:35.102Z,102624.94
2022-12-17T18:20:01.508Z,102627.75
2022-12-17T18:22:28.994Z,102633.00
2022-12-17T18:24:55.411Z,102629.25
2022-12-17T18:27:27.900Z,102620.69
2022-12-17T18:29:54.311Z,102618.69
2022-12-17T18:32:20.733Z,102627.84
2022-12-17T18:34:47.266Z,102627.72
2022-12-17T18:37:13.709Z,102633.72
2022-12-17T18:39:40.133Z,102633.22
2022-12-17T18:42:25.177Z,102638.31
2022-12-17T18:44:51.650Z,102639.47
2022-12-17T18:47:18.884Z,102644.78
2022-12-17T18:49:45.394Z,102645.38
2022-12-17T18:52:17.073Z,102653.41
2022-12-17T18:54:43.883Z,102651.94
2022-12-17T18:57:10.398Z,102653.03
2022-12-17T18:59:37.438Z,102657.78
2022-12-17T19:02:04.233Z,102665.47
2022-12-17T19:04:32.841Z,102667.41
2022-12-17T19:06:59.413Z,102665.06
2022-12-17T19:09:29.078Z,102666.31
2022-12-17T19:11:56.498Z,102670.63
2022-12-17T19:14:26.686Z,102667.75
2022-12-17T19:16:55.284Z,102681.16
2022-12-17T19:19:22.456Z,102675.81
2022-12-17T19:21:51.938Z,102672.94
2022-12-17T19:24:21.006Z,102680.91
2022-12-17T19:26:48.614Z,102689.75
2022-12-17T19:29:16.451Z,102693.97
2022-12-17T19:31:46.277Z,102695.66
2022-12-17T19:34:14.846Z,102696.69
2022-12-17T19:36:42.498Z,102693.81
2022-12-17T19:39:14.912Z,102704.03
2022-12-17T19:41:41.449Z,102700.44
2022-12-17T19:44:11.332Z,102702.75
2022-12-17T19:46:38.088Z,102711.38
2022-12-17T19:49:04.759Z,102712.84
2022-12-17T19:51:32.455Z,102711.25
2022-12-17T19:54:04.726Z,102715.88
2022-12-17T19:56:33.493Z,102710.81
2022-12-17T19:59:02.118Z,102716.03
2022-12-17T20:01:30.993Z,102719.59
2022-12-17T20:03:58.703Z,102724.81
2022-12-17T20:06:27.892Z,102713.56
2022-12-17T20:08:54.530Z,102714.41
2022-12-17T20:11:36.301Z,102716.13
2022-12-17T20:14:13.309Z,102724.94
2022-12-17T20:16:52.147Z,102716.44
2022-12-17T20:19:27.522Z,102728.66
2022-12-17T20:21:54.910Z,102727.81
2022-12-17T20:24:27.146Z,102730.56
2022-12-17T20:26:57.125Z,102731.69
2022-12-17T20:29:28.180Z,102733.75
2022-12-17T20:32:01.147Z,102740.19
2022-12-17T20:34:27.628Z,102739.63
2022-12-17T20:36:56.748Z,102740.63
2022-12-17T20:39:28.159Z,102744.81
2022-12-17T20:41:55.496Z,102740.91
2022-12-17T20:44:21.922Z,102738.16
2022-12-17T20:46:48.388Z,102749.97
2022-12-17T20:49:14.851Z,102750.28
2022-12-17T20:51:41.480Z,102745.78
2022-12-17T20:54:08.428Z,102741.03
2022-12-17T20:56:35.521Z,102748.09
2022-12-17T20:59:07.228Z,102745.97
2022-12-17T21:01:35.970Z,102753.31
2022-12-17T21:04:03.669Z,102752.59
2022-12-17T21:06:35.787Z,102741.78
2022-12-17T21:09:03.275Z,102747.25
2022-12-17T21:11:32.561Z,102748.84
2022-12-17T21:14:01.762Z,102756.63
2022-12-17T21:16:31.254Z,102749.13
2022-12-17T21:18:59.613Z,102763.25
2022-12-17T21:21:31.556Z,102757.91
2022-12-17T21:23:59.015Z,102760.50
2022-12-17T21:26:29.246Z,102764.13
2022-12-17T21:28:59.486Z,102768.88
2022-12-17T21:31:35.367Z,102767.88
2022-12-17T21:34:04.610Z,102779.69
2022-12-17T21:36:32.955Z,102779.38
2022-12-17T21:39:00.392Z,102785.72
2022-12-17T21:41:31.586Z,102786.00
2022-12-17T21:44:01.487Z,102794.50
2022-12-17T21:46:29.043Z,102784.13
2022-12-17T21:48:57.262Z,102787.84
2022-12-17T21:51:23.893Z,102786.56
2022-12-17T21:53:55.357Z,102782.81
2022-12-17T21:56:22.161Z,102792.84
2022-12-17T21:58:49.452Z,102788.84
2022-12-17T22:01:25.353Z,102786.28
2022-12-17T22:03:54.549Z,102797.50
2022-12-17T22:06:29.496Z,102793.47
2022-12-17T22:09:09.442Z,102798.50
2022-12-17T22:11:42.269Z,102796.09
2022-12-17T22:14:18.907Z,102803.63
2022-12-17T22:16:49.140Z,102809.38
2022-12-17T22:19:20.295Z,102813.63
2022-12-17T22:21:56.856Z,102814.38
2022-12-17T22:24:27.316Z,102814.00
2022-12-17T22:27:00.204Z,102810.84
2022-12-17T22:29:48.186Z,102808.63
2022-12-17T22:32:52.746Z,102810.16
2022-12-17T22:36:39.577Z,102829.66
2022-12-17T22:42:03.410Z,102825.63
2022-12-17T22:44:32.173Z,102837.84
2022-12-17T22:44:37.450Z,102836.66
2022-12-17T22:46:42.445Z,102846.81
2022-12-17T22:49:09.225Z,102840.53
2022-12-17T22:51:37.105Z,102839.38
2022-12-17T22:54:12.353Z,102847.31
2022-12-17T22:57:16.770Z,102854.28
2022-12-17T22:59:28.354Z,102852.09
2022-12-17T23:01:54.814Z,102854.97
2022-12-17T23:04:21.369Z,102860.84
2022-12-17T23:06:50.808Z,102856.44
2022-12-17T23:09:19.121Z,102860.19
2022-12-17T23:11:47.318Z,102863.63
2022-12-17T23:14:14.043Z,102861.34
2022-12-17T23:16:41.375Z,102856.56
2022-12-17T23:19:08.331Z,102861.03
2022-12-17T23:21:35.572Z,102859.72
2022-12-17T23:24:02.012Z,102858.72
2022-12-17T23:26:31.462Z,102858.88
2022-12-17T23:29:01.720Z,102866.69
2022-12-17T23:31:33.243Z,102865.41
2022-12-17T23:33:59.765Z,102859.84
2022-12-17T23:36:26.571Z,102875.94
2022-12-17T23:38:56.225Z,102873.22
2022-12-17T23:41:25.811Z,102865.00
2022-12-17T23:43:53.026Z,102870.47
2022-12-17T23:46:19.855Z,102871.44
2022-12-17T23:48:47.753Z,102878.31
2022-12-17T23:51:15.672Z,102879.78
2022-12-17T23:53:43.259Z,102876.97
2022-12-17T23:56:11.754Z,102876.81
2022-12-17T23:58:39.350Z,102878.78
